createdAt,value
2023-05-19T00:02:22.979Z,15.20
2023-05-19T00:04:50.216Z,13.23
2023-05-19T00:07:21.657Z,15.30
2023-05-19T00:09:48.885Z,11.27
2023-05-19T00:12:16.294Z,15.93
2023-05-19T00:14:43.609Z,13.27
2023-05-19T00:17:10.847Z,15.77
2023-05-19T00:19:38.233Z,14.13
2023-05-19T00:22:05.524Z,11.07
2023-05-19T00:24:33.248Z,16.77
2023-05-19T00:27:00.853Z,16.52
2023-05-19T00:29:28.590Z,12.63
2023-05-19T00:31:56.966Z,12.52
2023-05-19T00:34:24.112Z,14.18
2023-05-19T00:36:51.905Z,14.55
2023-05-19T00:39:18.904Z,13.85
2023-05-19T00:41:45.895Z,14.45
2023-05-19T00:44:12.943Z,14.90
2023-05-19T00:46:41.334Z,16.77
2023-05-19T00:49:08.442Z,15.07
2023-05-19T00:51:37.112Z,13.88
2023-05-19T00:54:04.625Z,12.48
2023-05-19T00:56:32.602Z,12.18
2023-05-19T00:59:01.257Z,16.35
2023-05-19T01:01:28.531Z,14.80
2023-05-19T01:03:59.142Z,15.75
2023-05-19T01:06:27.859Z,15.38
2023-05-19T01:08:55.198Z,15.15
2023-05-19T01:11:22.228Z,15.07
2023-05-19T01:13:49.630Z,14.85
2023-05-19T01:16:46.550Z,12.30
2023-05-19T01:19:20.615Z,14.57
2023-05-19T01:24:49.708Z,13.70
2023-05-19T01:27:41.974Z,15.75
2023-05-19T01:30:31.374Z,16.30
2023-05-19T01:33:04.646Z,11.35
2023-05-19T01:35:33.478Z,13.93
2023-05-19T01:38:02.039Z,15.77
2023-05-19T01:40:30.246Z,17.25
2023-05-19T01:42:59.399Z,12.88
2023-05-19T01:45:28.961Z,15.32
2023-05-19T01:47:58.869Z,15.27
2023-05-19T01:50:26.187Z,17.70
2023-05-19T01:52:53.266Z,14.10
2023-05-19T01:55:21.333Z,16.40
2023-05-19T01:58:00.169Z,16.00
2023-05-19T02:00:30.050Z,16.30
2023-05-19T02:03:13.761Z,16.80
2023-05-19T02:06:01.479Z,18.33
2023-05-19T02:08:39.656Z,16.30
2023-05-19T02:11:19.494Z,18.35
2023-05-19T02:13:51.335Z,16.23
2023-05-19T02:16:20.727Z,16.42
2023-05-19T02:18:48.150Z,18.50
2023-05-19T02:21:15.228Z,18.88
2023-05-19T02:23:42.372Z,18.50
2023-05-19T02:26:09.435Z,15.18
2023-05-19T02:28:39.305Z,18.02
2023-05-19T02:31:09.002Z,21.10
2023-05-19T02:33:36.477Z,17.00
2023-05-19T02:36:03.620Z,14.07
2023-05-19T02:38:31.079Z,13.55
2023-05-19T02:40:58.692Z,16.45
2023-05-19T02:43:25.886Z,16.80
2023-05-19T02:45:53.113Z,15.13
2023-05-19T02:48:20.214Z,15.45
2023-05-19T02:50:47.319Z,19.10
2023-05-19T02:53:14.450Z,17.92
2023-05-19T02:55:42.288Z,18.35
2023-05-19T02:58:09.279Z,16.25
2023-05-19T03:00:36.325Z,17.27
2023-05-19T03:03:04.686Z,13.85
2023-05-19T03:05:31.792Z,18.75
2023-05-19T03:07:58.980Z,18.58
2023-05-19T03:10:26.298Z,14.55
2023-05-19T03:12:53.433Z,16.95
2023-05-19T03:15:22.986Z,15.15
2023-05-19T03:17:50.137Z,19.63
2023-05-19T03:20:17.621Z,16.73
2023-05-19T03:22:44.731Z,16.65
2023-05-19T03:25:11.781Z,17.42
2023-05-19T03:27:38.913Z,17.42
2023-05-19T03:30:07.326Z,17.58
2023-05-19T03:32:41.256Z,15.85
2023-05-19T03:35:09.075Z,17.23
2023-05-19T03:37:36.076Z,19.27
2023-05-19T03:40:05.452Z,20.20
2023-05-19T03:42:33.688Z,18.13
2023-05-19T03:45:01.213Z,17.20
2023-05-19T03:47:28.363Z,17.02
2023-05-19T03:50:18.731Z,12.23
2023-05-19T03:53:01.084Z,18.27
2023-05-19T03:55:30.685Z,16.73
2023-05-19T03:57:57.674Z,18.70
2023-05-19T04:00:25.053Z,17.02
2023-05-19T04:02:52.252Z,16.45
2023-05-19T04:05:19.419Z,20.40
2023-05-19T04:07:46.947Z,19.58
2023-05-19T04:10:17.275Z,18.58
2023-05-19T04:12:44.288Z,18.75
2023-05-19T04:15:12.120Z,19.33
2023-05-19T04:17:39.751Z,18.95
2023-05-19T04:20:07.271Z,18.08
2023-05-19T04:22:34.449Z,19.80
2023-05-19T04:25:01.814Z,20.90
2023-05-19T04:27:30.114Z,18.42
2023-05-19T04:29:58.188Z,15.85
2023-05-19T04:32:25.828Z,18.70
2023-05-19T04:34:54.040Z,18.80
2023-05-19T04:37:26.272Z,18.00
2023-05-19T04:39:54.247Z,21.23
2023-05-19T04:42:26.329Z,11.73
2023-05-19T04:44:54.637Z,17.98
2023-05-19T04:47:28.228Z,15.32
2023-05-19T04:49:55.923Z,18.08
2023-05-19T04:52:23.818Z,17.88
2023-05-19T04:54:51.292Z,16.95
2023-05-19T04:57:18.401Z,23.85
2023-05-19T04:59:46.432Z,20.55
2023-05-19T05:02:13.751Z,18.75
2023-05-19T05:04:43.605Z,21.25
2023-05-19T05:07:11.186Z,19.65
2023-05-19T05:09:39.011Z,13.98
2023-05-19T05:12:08.038Z,22.58
2023-05-19T05:14:37.075Z,22.08
2023-05-19T05:17:04.950Z,21.10
2023-05-19T05:19:32.923Z,20.65
2023-05-19T05:22:00.613Z,21.70
2023-05-19T05:24:27.950Z,16.70
2023-05-19T05:26:59.445Z,21.38
2023-05-19T05:29:26.700Z,25.73
2023-05-19T05:31:53.936Z,19.67
2023-05-19T05:34:22.278Z,25.65
2023-05-19T05:36:49.257Z,24.98
2023-05-19T05:39:17.502Z,25.70
2023-05-19T05:41:45.617Z,23.35
2023-05-19T05:44:13.102Z,15.40
2023-05-19T05:46:42.779Z,25.15
2023-05-19T05:49:12.465Z,22.13
2023-05-19T05:51:48.416Z,19.70
2023-05-19T05:54:22.802Z,27.55
2023-05-19T05:56:51.269Z,18.67
2023-05-19T05:59:18.391Z,19.15
2023-05-19T06:01:45.580Z,30.60
2023-05-19T06:04:12.761Z,28.48
2023-05-19T06:06:39.803Z,26.45
2023-05-19T06:09:07.970Z,25.27
2023-05-19T06:11:35.022Z,25.48
2023-05-19T06:14:04.570Z,23.88
2023-05-19T06:16:51.100Z,25.63
2023-05-19T06:19:20.003Z,31.85
2023-05-19T06:21:47.132Z,28.02
2023-05-19T06:24:15.263Z,32.05
2023-05-19T06:26:42.385Z,31.67
2023-05-19T06:29:09.476Z,26.33
2023-05-19T06:31:36.592Z,31.38
2023-05-19T06:34:12.423Z,32.73
2023-05-19T06:36:41.544Z,27.27
2023-05-19T06:39:09.456Z,27.25
2023-05-19T06:41:36.934Z,27.85
2023-05-19T06:44:04.681Z,26.17
2023-05-19T06:46:33.651Z,28.85
2023-05-19T06:49:01.099Z,27.90
2023-05-19T06:51:31.873Z,24.48
2023-05-19T06:54:00.160Z,26.70
2023-05-19T06:56:27.773Z,25.40
2023-05-19T06:58:56.315Z,25.20
2023-05-19T07:01:30.243Z,25.95
2023-05-19T07:03:58.552Z,23.25
2023-05-19T07:06:26.112Z,23.13
2023-05-19T07:08:53.299Z,21.38
2023-05-19T07:11:21.747Z,19.50
2023-05-19T07:13:49.234Z,23.67
2023-05-19T07:16:22.883Z,22.15
2023-05-19T07:18:50.011Z,18.73
2023-05-19T07:21:17.128Z,22.90
2023-05-19T07:23:44.162Z,18.60
2023-05-19T07:26:11.997Z,20.17
2023-05-19T07:28:41.482Z,22.23
2023-05-19T07:31:09.539Z,16.38
2023-05-19T07:33:36.584Z,18.90
2023-05-19T07:36:04.427Z,15.60
2023-05-19T07:38:34.548Z,18.23
2023-05-19T07:41:02.962Z,20.40
2023-05-19T07:43:30.126Z,17.50
2023-05-19T07:45:57.435Z,15.18
2023-05-19T07:48:25.819Z,17.55
2023-05-19T07:50:53.252Z,14.25
2023-05-19T07:53:20.910Z,17.80
2023-05-19T07:55:48.018Z,16.63
2023-05-19T07:58:15.723Z,15.82
2023-05-19T08:00:43.259Z,15.48
2023-05-19T08:03:10.801Z,15.88
2023-05-19T08:05:38.101Z,16.52
2023-05-19T08:08:05.422Z,14.98
2023-05-19T08:10:32.694Z,17.17
2023-05-19T08:12:59.877Z,17.13
2023-05-19T08:15:27.079Z,19.13
2023-05-19T08:17:54.187Z,13.75
2023-05-19T08:20:22.859Z,13.70
2023-05-19T08:22:50.093Z,17.13
2023-05-19T08:25:17.136Z,18.33
2023-05-19T08:27:44.131Z,12.55
2023-05-19T08:30:11.770Z,12.10
2023-05-19T08:32:38.968Z,13.82
2023-05-19T08:35:06.424Z,12.75
2023-05-19T08:37:34.285Z,15.60
2023-05-19T08:40:01.297Z,12.95
2023-05-19T08:42:28.333Z,15.75
2023-05-19T08:44:55.570Z,12.43
2023-05-19T08:47:22.932Z,14.32
2023-05-19T08:49:55.399Z,13.45
2023-05-19T08:52:33.327Z,11.45
2023-05-19T08:55:13.843Z,14.68
2023-05-19T08:57:41.665Z,11.98
2023-05-19T09:00:12.067Z,11.68
2023-05-19T09:02:50.412Z,13.90
2023-05-19T09:05:27.323Z,12.20
2023-05-19T09:07:55.125Z,9.88
2023-05-19T09:10:22.305Z,10.50
2023-05-19T09:12:49.913Z,12.20
2023-05-19T09:15:19.203Z,9.25
2023-05-19T09:17:48.109Z,13.02
2023-05-19T09:20:17.594Z,12.63
2023-05-19T09:22:47.714Z,9.27
2023-05-19T09:25:23.282Z,10.38
2023-05-19T09:27:51.182Z,9.23
2023-05-19T09:30:19.581Z,8.50
2023-05-19T09:32:49.234Z,11.07
2023-05-19T09:35:17.361Z,12.90
2023-05-19T09:37:44.567Z,15.25
2023-05-19T09:40:14.837Z,13.48
2023-05-19T09:42:43.179Z,12.10
2023-05-19T09:45:10.440Z,11.55
2023-05-19T09:47:38.818Z,11.88
2023-05-19T09:50:08.794Z,12.95
2023-05-19T09:52:39.370Z,16.50
2023-05-19T09:55:10.619Z,13.57
2023-05-19T09:57:40.241Z,11.18
2023-05-19T10:00:20.820Z,11.02
2023-05-19T10:02:48.487Z,11.52
2023-05-19T10:05:20.083Z,10.57
2023-05-19T10:07:50.099Z,12.35
2023-05-19T10:10:17.719Z,8.48
2023-05-19T10:12:45.411Z,12.50
2023-05-19T10:15:15.128Z,11.35
2023-05-19T10:17:43.765Z,11.07
2023-05-19T10:20:17.916Z,12.55
2023-05-19T10:22:46.534Z,12.48
2023-05-19T10:25:18.689Z,10.63
2023-05-19T10:28:15.094Z,9.80
2023-05-19T10:30:45.992Z,11.57
2023-05-19T10:33:17.344Z,11.55
2023-05-19T10:36:09.235Z,10.88
2023-05-19T10:39:02.193Z,10.85
2023-05-19T10:41:39.590Z,9.07
2023-05-19T10:44:37.073Z,12.32
2023-05-19T10:47:07.593Z,8.68
2023-05-19T10:49:36.677Z,10.05
2023-05-19T10:52:04.325Z,9.25
2023-05-19T10:54:43.093Z,9.70
2023-05-19T10:57:15.207Z,8.32
2023-05-19T10:59:44.675Z,12.75
2023-05-19T11:02:39.682Z,10.00
2023-05-19T11:05:15.008Z,7.65
2023-05-19T11:07:44.574Z,20.30
2023-05-19T11:10:12.486Z,11.73
2023-05-19T11:12:44.907Z,11.15
2023-05-19T11:15:14.164Z,8.48
2023-05-19T11:17:44.771Z,11.60
2023-05-19T11:20:25.700Z,10.93
2023-05-19T11:23:06.168Z,12.85
2023-05-19T11:25:50.024Z,9.65
2023-05-19T11:28:25.684Z,12.05
2023-05-19T11:30:57.523Z,13.50
2023-05-19T11:33:29.273Z,10.57
2023-05-19T11:35:59.950Z,10.07
2023-05-19T11:38:28.583Z,11.07
2023-05-19T11:40:56.486Z,8.43
2023-05-19T11:43:25.026Z,8.30
2023-05-19T11:45:53.445Z,8.50
2023-05-19T11:48:24.839Z,9.90
2023-05-19T11:50:52.618Z,11.68
2023-05-19T11:53:20.193Z,10.60
2023-05-19T11:55:48.417Z,8.77
2023-05-19T11:58:16.793Z,7.65
2023-05-19T12:00:46.160Z,9.85
2023-05-19T12:03:13.487Z,9.90
2023-05-19T12:05:46.743Z,11.02
2023-05-19T12:08:16.370Z,9.43
2023-05-19T12:10:43.413Z,8.60
2023-05-19T12:13:10.832Z,8.25
2023-05-19T12:15:39.020Z,12.82
2023-05-19T12:18:06.782Z,9.98
2023-05-19T12:20:36.116Z,8.77
2023-05-19T12:23:04.237Z,8.02
2023-05-19T12:25:32.079Z,11.77
2023-05-19T12:28:00.866Z,10.52
2023-05-19T12:30:29.456Z,8.35
2023-05-19T12:33:00.150Z,10.30
2023-05-19T12:35:33.627Z,9.57
2023-05-19T12:38:07.623Z,9.63
2023-05-19T12:40:36.498Z,7.18
2023-05-19T12:43:04.060Z,8.32
2023-05-19T12:45:42.661Z,9.68
2023-05-19T12:48:13.946Z,9.27
2023-05-19T12:50:41.022Z,11.35
2023-05-19T12:53:14.971Z,10.98
2023-05-19T12:55:43.546Z,8.07
2023-05-19T12:58:11.991Z,9.73
2023-05-19T13:00:45.206Z,9.13
2023-05-19T13:03:17.438Z,10.20
2023-05-19T13:05:47.061Z,10.63
2023-05-19T13:08:18.930Z,8.77
2023-05-19T13:10:47.678Z,11.13
2023-05-19T13:13:14.977Z,10.57
2023-05-19T13:15:43.856Z,7.50
2023-05-19T13:18:12.657Z,9.50
2023-05-19T13:20:41.988Z,7.85
2023-05-19T13:23:11.243Z,7.75
2023-05-19T13:25:38.662Z,8.35
2023-05-19T13:28:06.682Z,9.45
2023-05-19T13:30:35.620Z,7.90
2023-05-19T13:33:03.199Z,8.77
2023-05-19T13:35:36.748Z,9.93
2023-05-19T13:40:34.684Z,10.73
2023-05-19T13:43:02.939Z,10.38
2023-05-19T13:45:30.335Z,10.23
2023-05-19T13:47:57.502Z,7.38
2023-05-19T13:50:24.510Z,11.82
2023-05-19T13:52:52.059Z,12.60
2023-05-19T13:55:19.271Z,7.85
2023-05-19T13:57:46.333Z,6.88
2023-05-19T14:00:13.945Z,8.25
2023-05-19T14:02:41.183Z,8.40
2023-05-19T14:05:08.670Z,8.60
2023-05-19T14:07:36.027Z,6.85
2023-05-19T14:10:05.585Z,12.38
2023-05-19T14:12:41.303Z,8.43
2023-05-19T14:15:14.768Z,11.95
2023-05-19T14:17:41.987Z,8.05
2023-05-19T14:20:09.780Z,7.93
2023-05-19T14:22:36.898Z,9.77
2023-05-19T14:25:04.141Z,7.22
2023-05-19T14:27:31.130Z,9.18
2023-05-19T14:29:58.208Z,9.32
2023-05-19T14:32:26.344Z,10.25
2023-05-19T14:34:54.985Z,8.07
2023-05-19T14:37:22.013Z,9.98
2023-05-19T14:39:49.756Z,9.52
2023-05-19T14:42:16.687Z,8.75
2023-05-19T14:44:43.766Z,8.20
2023-05-19T14:47:12.452Z,11.50
2023-05-19T14:49:39.667Z,6.85
2023-05-19T14:52:06.964Z,8.73
2023-05-19T14:54:34.161Z,6.53
2023-05-19T14:57:01.709Z,9.57
2023-05-19T14:59:29.775Z,9.52
2023-05-19T15:01:56.840Z,6.70
2023-05-19T15:04:23.937Z,8.73
2023-05-19T15:07:05.901Z,9.50
2023-05-19T15:09:36.644Z,6.53
2023-05-19T15:12:03.776Z,8.25
2023-05-19T15:14:31.425Z,7.50
2023-05-19T15:16:59.096Z,5.75
2023-05-19T15:19:26.451Z,10.57
2023-05-19T15:21:53.601Z,7.72
2023-05-19T15:24:20.746Z,10.15
2023-05-19T15:26:47.910Z,7.35
2023-05-19T15:29:14.970Z,10.05
2023-05-19T15:31:42.202Z,8.35
2023-05-19T15:34:09.379Z,8.13
2023-05-19T15:36:36.334Z,8.93
2023-05-19T15:39:03.932Z,7.25
2023-05-19T15:41:31.036Z,8.00
2023-05-19T15:44:00.292Z,9.82
2023-05-19T15:46:27.997Z,10.30
2023-05-19T15:48:55.328Z,8.20
2023-05-19T15:51:22.756Z,10.55
2023-05-19T15:53:49.814Z,7.65
2023-05-19T15:56:16.951Z,10.77
2023-05-19T15:58:44.045Z,10.70
2023-05-19T16:01:11.096Z,12.80
2023-05-19T16:03:38.228Z,10.27
2023-05-19T16:06:05.641Z,11.85
2023-05-19T16:08:32.699Z,7.80
2023-05-19T16:10:59.715Z,10.00
2023-05-19T16:13:26.800Z,7.72
2023-05-19T16:15:53.870Z,8.90
2023-05-19T16:18:20.987Z,8.63
2023-05-19T16:20:47.973Z,7.05
2023-05-19T16:23:14.994Z,13.40
2023-05-19T16:25:42.069Z,11.60
2023-05-19T16:28:09.145Z,6.43
2023-05-19T16:30:36.391Z,13.25
2023-05-19T16:33:03.742Z,11.75
2023-05-19T16:35:31.061Z,12.10
2023-05-19T16:37:58.409Z,7.63
2023-05-19T16:40:25.627Z,8.02
2023-05-19T16:42:55.537Z,8.52
2023-05-19T16:45:22.542Z,9.25
2023-05-19T16:47:49.569Z,10.73
2023-05-19T16:50:16.689Z,10.20
2023-05-19T16:52:43.874Z,10.00
2023-05-19T16:55:11.209Z,12.43
2023-05-19T16:57:38.444Z,8.70
2023-05-19T17:00:06.001Z,11.57
2023-05-19T17:02:33.145Z,10.13
2023-05-19T17:05:00.304Z,8.82
2023-05-19T17:07:29.199Z,9.88
2023-05-19T17:09:56.372Z,9.15
2023-05-19T17:12:23.664Z,10.48
2023-05-19T17:14:52.137Z,10.43
2023-05-19T17:17:19.269Z,9.82
2023-05-19T17:19:46.885Z,13.50
2023-05-19T17:22:13.876Z,9.00
2023-05-19T17:24:41.389Z,12.40
2023-05-19T17:27:08.418Z,9.43
2023-05-19T17:29:36.882Z,10.80
2023-05-19T17:32:04.505Z,9.85
2023-05-19T17:34:31.619Z,10.60
2023-05-19T17:36:58.630Z,12.98
2023-05-19T17:39:25.712Z,10.55
2023-05-19T17:41:52.741Z,10.00
2023-05-19T17:44:19.747Z,9.55
2023-05-19T17:46:46.861Z,12.38
2023-05-19T17:49:15.321Z,11.25
2023-05-19T17:51:42.602Z,14.23
2023-05-19T17:54:09.849Z,11.20
2023-05-19T17:56:42.473Z,11.75
2023-05-19T17:59:09.904Z,11.30
2023-05-19T18:01:37.226Z,9.27
2023-05-19T18:04:04.751Z,13.75
2023-05-19T18:06:32.276Z,10.15
2023-05-19T18:09:01.278Z,12.68
2023-05-19T18:11:28.659Z,11.38
2023-05-19T18:13:55.840Z,11.38
2023-05-19T18:16:22.876Z,14.07
2023-05-19T18:18:50.648Z,10.65
2023-05-19T18:21:18.208Z,14.73
2023-05-19T18:23:46.252Z,14.30
2023-05-19T18:26:13.475Z,15.32
2023-05-19T18:28:41.645Z,10.70
2023-05-19T18:31:09.391Z,11.02
2023-05-19T18:33:36.386Z,12.27
2023-05-19T18:36:03.526Z,14.35
2023-05-19T18:38:30.621Z,9.95
2023-05-19T18:40:57.808Z,10.55
2023-05-19T18:43:25.010Z,11.77
2023-05-19T18:45:52.075Z,13.13
2023-05-19T18:48:19.198Z,9.65
2023-05-19T18:50:46.533Z,10.75
2023-05-19T18:53:13.589Z,10.80
2023-05-19T18:55:40.618Z,10.95
2023-05-19T18:58:07.794Z,11.60
2023-05-19T19:00:36.558Z,15.20
2023-05-19T19:03:04.332Z,16.38
2023-05-19T19:05:31.392Z,9.98
2023-05-19T19:07:58.433Z,9.98
2023-05-19T19:10:25.617Z,10.77
2023-05-19T19:12:52.675Z,13.15
2023-05-19T19:15:19.662Z,12.43
2023-05-19T19:17:46.711Z,13.98
2023-05-19T19:20:13.933Z,14.10
2023-05-19T19:22:41.054Z,13.02
2023-05-19T19:25:08.490Z,10.32
2023-05-19T19:27:35.740Z,11.63
2023-05-19T19:30:02.944Z,14.95
2023-05-19T19:32:31.521Z,11.75
2023-05-19T19:34:58.693Z,11.30
2023-05-19T19:37:25.848Z,12.65
2023-05-19T19:39:52.914Z,12.10
2023-05-19T19:42:20.048Z,11.77
2023-05-19T19:44:47.041Z,10.57
2023-05-19T19:47:14.119Z,8.52
2023-05-19T19:49:41.412Z,10.68
2023-05-19T19:52:08.447Z,12.45
2023-05-19T19:54:35.479Z,10.88
2023-05-19T19:57:02.574Z,15.52
2023-05-19T19:59:30.584Z,8.35
2023-05-19T20:01:57.799Z,12.23
2023-05-19T20:04:25.013Z,12.93
2023-05-19T20:06:52.226Z,12.32
2023-05-19T20:09:19.270Z,12.05
2023-05-19T20:11:46.317Z,11.20
2023-05-19T20:14:13.331Z,10.20
2023-05-19T20:16:41.088Z,11.45
2023-05-19T20:19:09.381Z,14.38
2023-05-19T20:21:36.564Z,10.98
2023-05-19T20:24:03.647Z,9.70
2023-05-19T20:26:31.535Z,12.98
2023-05-19T20:28:59.030Z,9.80
2023-05-19T20:31:26.188Z,12.07
2023-05-19T20:33:53.253Z,10.35
2023-05-19T20:36:20.309Z,10.85
2023-05-19T20:38:47.996Z,9.55
2023-05-19T20:41:15.371Z,13.07
2023-05-19T20:43:42.520Z,13.73
2023-05-19T20:46:09.708Z,11.65
2023-05-19T20:48:36.867Z,11.43
2023-05-19T20:51:03.962Z,14.48
2023-05-19T20:53:30.981Z,11.23
2023-05-19T20:55:58.079Z,13.38
2023-05-19T20:58:29.999Z,11.15
2023-05-19T21:00:58.054Z,10.85
2023-05-19T21:03:26.827Z,17.70
2023-05-19T21:05:55.027Z,11.07
2023-05-19T21:08:22.654Z,12.27
2023-05-19T21:10:49.692Z,11.43
2023-05-19T21:13:17.763Z,11.43
2023-05-19T21:15:44.854Z,14.48
2023-05-19T21:18:12.482Z,11.60
2023-05-19T21:20:39.956Z,14.13
2023-05-19T21:23:06.962Z,13.88
2023-05-19T21:25:34.141Z,13.10
2023-05-19T21:28:01.206Z,8.98
2023-05-19T21:30:29.050Z,10.38
2023-05-19T21:32:56.220Z,10.73
2023-05-19T21:35:23.291Z,13.40
2023-05-19T21:37:50.368Z,15.27
2023-05-19T21:40:17.410Z,10.00
2023-05-19T21:42:44.394Z,10.52
2023-05-19T21:45:11.725Z,14.73
2023-05-19T21:47:38.871Z,16.77
2023-05-19T21:50:06.872Z,13.55
2023-05-19T21:52:36.153Z,11.27
2023-05-19T21:55:03.381Z,16.45
2023-05-19T21:57:30.410Z,9.25
2023-05-19T21:59:57.409Z,10.35
2023-05-19T22:02:24.565Z,13.32
2023-05-19T22:04:51.788Z,15.40
2023-05-19T22:07:18.817Z,10.98
2023-05-19T22:09:48.188Z,12.07
2023-05-19T22:12:15.958Z,13.43
2023-05-19T22:14:42.958Z,13.68
2023-05-19T22:17:09.957Z,14.85
2023-05-19T22:19:36.911Z,12.07
2023-05-19T22:22:12.940Z,13.00
2023-05-19T22:24:41.265Z,14.02
2023-05-19T22:27:08.835Z,11.60
2023-05-19T22:29:38.660Z,9.48
2023-05-19T22:32:09.323Z,16.30
2023-05-19T22:34:36.455Z,12.75
2023-05-19T22:37:03.515Z,13.32
2023-05-19T22:39:30.645Z,13.02
2023-05-19T22:41:57.738Z,13.43
2023-05-19T22:44:24.781Z,12.45
2023-05-19T22:46:51.817Z,14.02
2023-05-19T22:49:18.876Z,11.48
2023-05-19T22:51:45.868Z,11.88
2023-05-19T22:54:12.998Z,14.15
2023-05-19T22:56:40.218Z,13.10
2023-05-19T22:59:07.209Z,11.82
2023-05-19T23:01:34.244Z,16.05
2023-05-19T23:04:01.387Z,15.60
2023-05-19T23:06:28.413Z,11.07
2023-05-19T23:09:02.118Z,12.48
2023-05-19T23:11:29.163Z,13.48
2023-05-19T23:13:56.583Z,12.68
2023-05-19T23:16:23.681Z,12.57
2023-05-19T23:18:50.702Z,13.02
2023-05-19T23:21:17.697Z,12.55
2023-05-19T23:23:44.684Z,13.05
2023-05-19T23:26:13.617Z,13.13
2023-05-19T23:28:42.500Z,13.70
2023-05-19T23:31:10.347Z,14.25
2023-05-19T23:33:37.432Z,13.35
2023-05-19T23:36:09.474Z,16.13
2023-05-19T23:38:37.420Z,15.32
2023-05-19T23:41:05.124Z,11.57
2023-05-19T23:43:34.890Z,16.30
2023-05-19T23:46:02.270Z,13.60
2023-05-19T23:48:31.279Z,16.10
2023-05-19T23:50:58.844Z,13.85
2023-05-19T23:53:26.118Z,11.55
2023-05-19T23:55:53.110Z,15.45
2023-05-19T23:58:20.201Z,15.05
